createdAt,value
2018-06-29T00:00:05.389Z,11.77
2018-06-29T00:02:34.077Z,12.17
2018-06-29T00:05:02.747Z,12.70
2018-06-29T00:07:31.433Z,12.90
2018-06-29T00:10:00.127Z,14.17
2018-06-29T00:12:28.795Z,14.47
2018-06-29T00:14:57.529Z,13.97
2018-06-29T00:17:26.211Z,14.03
2018-06-29T00:19:54.907Z,15.47
2018-06-29T00:22:23.604Z,13.87
2018-06-29T00:24:52.302Z,15.63
2018-06-29T00:27:20.973Z,16.30
2018-06-29T00:29:49.645Z,14.10
2018-06-29T00:32:18.384Z,14.73
2018-06-29T00:34:47.115Z,15.27
2018-06-29T00:37:15.785Z,14.77
2018-06-29T00:39:44.577Z,16.03
2018-06-29T00:42:13.222Z,14.60
2018-06-29T00:44:41.894Z,15.47
2018-06-29T00:47:10.557Z,14.40
2018-06-29T00:49:39.238Z,15.23
2018-06-29T00:52:07.923Z,14.20
2018-06-29T00:54:36.688Z,14.43
2018-06-29T00:57:05.555Z,15.60
2018-06-29T00:59:34.247Z,14.77
2018-06-29T01:02:03.379Z,15.90
2018-06-29T01:04:32.118Z,15.10
2018-06-29T01:07:00.861Z,16.10
2018-06-29T01:09:30.557Z,14.13
2018-06-29T01:11:59.254Z,16.73
2018-06-29T01:14:27.939Z,13.93
2018-06-29T01:16:56.688Z,13.97
2018-06-29T01:19:25.362Z,15.17
2018-06-29T01:21:54.280Z,13.63
2018-06-29T01:24:22.993Z,13.37
2018-06-29T01:26:51.678Z,12.93
2018-06-29T01:29:20.690Z,13.40
2018-06-29T01:31:49.397Z,13.07
2018-06-29T01:34:18.556Z,12.73
2018-06-29T01:36:47.252Z,13.53
2018-06-29T01:39:15.923Z,12.60
2018-06-29T01:41:46.642Z,12.60
2018-06-29T01:44:15.331Z,12.50
2018-06-29T01:46:44.066Z,11.70
2018-06-29T01:49:12.730Z,12.80
2018-06-29T01:51:41.432Z,12.17
2018-06-29T01:54:10.114Z,12.50
2018-06-29T01:56:51.154Z,12.50
2018-06-29T01:59:20.272Z,11.87
2018-06-29T02:01:49.503Z,11.60
2018-06-29T02:04:18.289Z,13.43
2018-06-29T02:06:46.981Z,12.60
2018-06-29T02:09:20.430Z,12.20
2018-06-29T02:11:49.093Z,12.97
2018-06-29T02:14:17.763Z,12.73
2018-06-29T02:16:46.457Z,12.67
2018-06-29T02:19:15.153Z,12.40
2018-06-29T02:21:43.855Z,12.70
2018-06-29T02:24:12.513Z,12.70
2018-06-29T02:26:41.199Z,13.17
2018-06-29T02:29:09.908Z,13.50
2018-06-29T02:31:43.798Z,13.20
2018-06-29T02:34:12.486Z,13.07
2018-06-29T02:36:41.166Z,12.53
2018-06-29T02:39:11.686Z,13.10
2018-06-29T02:41:40.111Z,12.80
2018-06-29T02:44:08.788Z,13.17
2018-06-29T02:46:37.749Z,13.47
2018-06-29T02:49:06.446Z,12.53
2018-06-29T02:51:35.528Z,11.93
2018-06-29T02:54:04.704Z,13.53
2018-06-29T02:56:33.623Z,12.80
2018-06-29T02:59:02.306Z,13.00
2018-06-29T03:01:31.003Z,12.60
2018-06-29T03:03:59.752Z,13.03
2018-06-29T03:06:28.446Z,13.53
2018-06-29T03:08:57.150Z,13.30
2018-06-29T03:11:25.822Z,13.70
2018-06-29T03:13:54.512Z,17.80
2018-06-29T03:16:23.191Z,14.57
2018-06-29T03:18:51.891Z,13.43
2018-06-29T03:21:20.573Z,15.20
2018-06-29T03:23:49.292Z,14.20
2018-06-29T03:26:17.982Z,15.30
2018-06-29T03:28:46.690Z,16.43
2018-06-29T03:31:15.381Z,15.70
2018-06-29T03:33:44.247Z,15.97
2018-06-29T03:36:12.996Z,15.47
2018-06-29T03:38:41.662Z,15.13
2018-06-29T03:41:10.577Z,14.13
2018-06-29T03:43:39.282Z,15.73
2018-06-29T03:46:08.159Z,14.87
2018-06-29T03:48:36.871Z,15.33
2018-06-29T03:51:05.614Z,15.33
2018-06-29T03:53:34.334Z,15.77
2018-06-29T03:56:03.093Z,15.93
2018-06-29T03:58:31.776Z,15.83
2018-06-29T04:01:00.523Z,15.43
2018-06-29T04:03:29.191Z,16.40
2018-06-29T04:05:57.894Z,16.20
2018-06-29T04:08:26.670Z,16.23
2018-06-29T04:10:55.340Z,16.27
2018-06-29T04:13:24.048Z,15.70
2018-06-29T04:15:52.723Z,16.33
2018-06-29T04:18:21.399Z,15.93
2018-06-29T04:20:50.197Z,17.23
2018-06-29T04:23:18.954Z,16.33
2018-06-29T04:25:47.675Z,16.30
2018-06-29T04:28:16.354Z,17.10
2018-06-29T04:30:45.303Z,18.10
2018-06-29T04:33:14.155Z,16.80
2018-06-29T04:35:42.811Z,15.97
2018-06-29T04:38:11.748Z,16.43
2018-06-29T04:40:40.689Z,15.97
2018-06-29T04:43:09.402Z,17.30
2018-06-29T04:45:39.843Z,15.83
2018-06-29T04:48:14.925Z,16.00
2018-06-29T04:50:43.849Z,15.83
2018-06-29T04:53:12.558Z,16.50
2018-06-29T04:55:41.306Z,17.30
2018-06-29T04:58:10.031Z,15.40
2018-06-29T05:00:38.734Z,17.23
2018-06-29T05:03:07.402Z,18.80
2018-06-29T05:05:36.064Z,17.87
2018-06-29T05:08:04.758Z,20.50
2018-06-29T05:10:33.462Z,16.27
2018-06-29T05:13:02.145Z,17.73
2018-06-29T05:15:30.939Z,16.57
2018-06-29T05:17:59.592Z,18.20
2018-06-29T05:20:38.626Z,18.47
2018-06-29T05:23:07.445Z,21.00
2018-06-29T05:25:39.998Z,18.40
2018-06-29T05:28:08.775Z,17.23
2018-06-29T05:30:38.468Z,17.93
2018-06-29T05:33:11.250Z,18.67
2018-06-29T05:35:39.934Z,18.70
2018-06-29T05:38:08.644Z,17.67
2018-06-29T05:40:37.327Z,18.20
2018-06-29T05:43:06.049Z,17.60
2018-06-29T05:45:34.764Z,15.63
2018-06-29T05:48:03.474Z,17.33
2018-06-29T05:50:32.242Z,15.93
2018-06-29T05:53:00.990Z,16.07
2018-06-29T05:55:29.740Z,15.73
2018-06-29T05:57:58.471Z,17.07
2018-06-29T06:00:27.909Z,16.47
2018-06-29T06:02:56.592Z,16.63
2018-06-29T06:08:18.882Z,16.60
2018-06-29T06:10:47.566Z,17.50
2018-06-29T06:13:20.375Z,17.77
2018-06-29T06:15:49.044Z,17.20
2018-06-29T06:18:17.698Z,17.73
2018-06-29T06:20:46.369Z,17.93
2018-06-29T06:23:19.644Z,16.57
2018-06-29T06:25:48.454Z,16.97
2018-06-29T06:28:18.034Z,17.23
2018-06-29T06:30:47.790Z,16.07
2018-06-29T06:33:16.567Z,16.20
2018-06-29T06:35:45.245Z,15.73
2018-06-29T06:38:15.653Z,15.80
2018-06-29T06:40:44.374Z,15.60
2018-06-29T06:43:13.077Z,15.13
2018-06-29T06:45:41.874Z,15.40
2018-06-29T06:48:10.569Z,15.53
2018-06-29T06:50:39.250Z,15.07
2018-06-29T06:53:07.970Z,15.90
2018-06-29T06:55:37.797Z,14.43
2018-06-29T06:58:06.534Z,13.20
2018-06-29T07:00:35.189Z,12.70
2018-06-29T07:03:03.983Z,12.37
2018-06-29T07:05:32.661Z,12.47
2018-06-29T07:08:01.353Z,11.57
2018-06-29T07:10:30.064Z,12.60
2018-06-29T07:13:03.947Z,12.17
2018-06-29T07:15:32.618Z,13.50
2018-06-29T07:18:01.298Z,13.50
2018-06-29T07:20:31.045Z,15.10
2018-06-29T07:22:59.778Z,13.47
2018-06-29T07:25:28.467Z,14.77
2018-06-29T07:27:57.187Z,13.37
2018-06-29T07:30:25.854Z,13.23
2018-06-29T07:32:54.522Z,13.67
2018-06-29T07:35:23.170Z,12.93
2018-06-29T07:37:51.878Z,12.70
2018-06-29T07:40:20.551Z,12.27
2018-06-29T07:42:49.213Z,11.77
2018-06-29T07:45:17.915Z,11.90
2018-06-29T07:47:46.583Z,11.80
2018-06-29T07:50:15.290Z,11.90
2018-06-29T07:52:44.027Z,10.87
2018-06-29T07:55:12.711Z,11.07
2018-06-29T07:57:41.393Z,16.80
2018-06-29T08:00:10.050Z,13.03
2018-06-29T08:02:38.746Z,12.43
2018-06-29T08:05:07.424Z,11.70
2018-06-29T08:07:36.135Z,11.37
2018-06-29T08:10:04.846Z,16.20
2018-06-29T08:12:33.571Z,12.23
2018-06-29T08:15:02.263Z,13.97
2018-06-29T08:17:30.912Z,13.03
2018-06-29T08:19:59.586Z,12.73
2018-06-29T08:22:28.286Z,12.07
2018-06-29T08:25:08.146Z,11.20
2018-06-29T08:27:36.883Z,11.70
2018-06-29T08:30:06.449Z,11.63
2018-06-29T08:32:35.158Z,13.53
2018-06-29T08:35:04.815Z,12.40
2018-06-29T08:37:33.526Z,11.53
2018-06-29T08:40:02.235Z,10.93
2018-06-29T08:42:30.969Z,11.33
2018-06-29T08:44:59.660Z,12.00
2018-06-29T08:47:28.328Z,12.37
2018-06-29T08:49:57.005Z,12.07
2018-06-29T08:52:25.687Z,11.10
2018-06-29T08:57:47.089Z,11.40
2018-06-29T09:00:15.758Z,12.30
2018-06-29T09:02:44.453Z,14.30
2018-06-29T09:05:13.212Z,16.80
2018-06-29T09:07:41.877Z,11.83
2018-06-29T09:10:10.585Z,13.20
2018-06-29T09:12:39.253Z,12.50
2018-06-29T09:15:07.959Z,14.07
2018-06-29T09:17:36.646Z,12.10
2018-06-29T09:20:05.366Z,12.73
2018-06-29T09:22:34.083Z,11.67
2018-06-29T09:25:02.945Z,12.70
2018-06-29T09:27:31.631Z,12.30
2018-06-29T09:30:00.355Z,11.97
2018-06-29T09:32:29.049Z,12.13
2018-06-29T09:34:58.751Z,12.83
2018-06-29T09:37:27.585Z,12.47
2018-06-29T09:39:56.255Z,10.73
2018-06-29T09:42:25.007Z,13.97
2018-06-29T09:44:53.702Z,11.97
2018-06-29T09:47:22.382Z,11.03
2018-06-29T09:49:51.030Z,11.17
2018-06-29T09:52:19.718Z,11.50
2018-06-29T09:54:48.425Z,11.47
2018-06-29T09:57:17.117Z,12.00
2018-06-29T09:59:45.828Z,11.50
2018-06-29T10:02:14.613Z,11.67
2018-06-29T10:04:43.354Z,11.30
2018-06-29T10:07:12.123Z,12.03
2018-06-29T10:09:42.799Z,12.00
2018-06-29T10:12:11.840Z,12.20
2018-06-29T10:14:40.611Z,11.43
2018-06-29T10:17:09.473Z,11.37
2018-06-29T10:19:38.187Z,12.70
2018-06-29T10:22:07.016Z,11.70
2018-06-29T10:24:35.729Z,10.90
2018-06-29T10:27:04.079Z,10.90
2018-06-29T10:29:32.766Z,11.90
2018-06-29T10:32:01.418Z,11.70
2018-06-29T10:34:30.131Z,10.70
2018-06-29T10:36:59.066Z,10.97
2018-06-29T10:39:30.966Z,13.20
2018-06-29T10:41:59.662Z,12.37
2018-06-29T10:44:28.365Z,12.50
2018-06-29T10:47:03.582Z,12.80
2018-06-29T10:49:32.291Z,12.00
2018-06-29T10:52:01.359Z,11.77
2018-06-29T10:54:30.028Z,12.10
2018-06-29T10:56:58.710Z,14.83
2018-06-29T10:59:27.406Z,12.10
2018-06-29T11:01:56.362Z,12.23
2018-06-29T11:04:25.054Z,11.53
2018-06-29T11:06:54.453Z,11.47
2018-06-29T11:09:23.117Z,12.43
2018-06-29T11:11:51.821Z,13.43
2018-06-29T11:14:20.489Z,14.40
2018-06-29T11:16:49.199Z,13.20
2018-06-29T11:19:20.827Z,13.73
2018-06-29T11:21:49.533Z,12.40
2018-06-29T11:24:18.219Z,11.33
2018-06-29T11:26:46.899Z,11.20
2018-06-29T11:29:15.625Z,11.90
2018-06-29T11:31:44.310Z,11.70
2018-06-29T11:34:13.026Z,11.60
2018-06-29T11:36:41.768Z,11.70
2018-06-29T11:39:13.536Z,12.43
2018-06-29T11:41:42.778Z,12.67
2018-06-29T11:44:11.997Z,12.30
2018-06-29T11:46:40.712Z,10.73
2018-06-29T11:49:10.425Z,11.17
2018-06-29T11:51:39.245Z,10.50
2018-06-29T11:54:08.455Z,10.53
2018-06-29T11:56:37.184Z,12.03
2018-06-29T11:59:06.361Z,11.17
2018-06-29T12:01:35.029Z,9.70
2018-06-29T12:04:03.734Z,10.70
2018-06-29T12:06:32.462Z,11.23
2018-06-29T12:09:01.150Z,11.23
2018-06-29T12:11:29.866Z,10.63
2018-06-29T12:13:58.564Z,11.60
2018-06-29T12:16:27.269Z,11.60
2018-06-29T12:18:55.938Z,15.83
2018-06-29T12:21:24.654Z,12.03
2018-06-29T12:23:52.959Z,11.90
2018-06-29T12:26:21.723Z,12.33
2018-06-29T12:28:50.415Z,11.80
2018-06-29T12:31:19.094Z,12.07
2018-06-29T12:33:47.772Z,11.60
2018-06-29T12:36:16.628Z,10.60
2018-06-29T12:38:45.341Z,11.20
2018-06-29T12:41:14.058Z,12.03
2018-06-29T12:43:42.881Z,10.70
2018-06-29T12:46:11.616Z,11.63
2018-06-29T12:48:39.922Z,11.40
2018-06-29T12:51:08.616Z,11.83
2018-06-29T12:53:37.316Z,10.40
2018-06-29T12:56:06.047Z,10.90
2018-06-29T12:58:34.843Z,10.00
2018-06-29T13:01:03.607Z,10.70
2018-06-29T13:03:32.273Z,9.73
2018-06-29T13:06:00.954Z,10.27
2018-06-29T13:08:29.626Z,9.40
2018-06-29T13:10:58.341Z,8.90
2018-06-29T13:13:27.011Z,9.63
2018-06-29T13:15:55.700Z,9.50
2018-06-29T13:18:24.413Z,9.07
2018-06-29T13:20:53.705Z,8.53
2018-06-29T13:23:22.602Z,9.50
2018-06-29T13:25:50.910Z,8.80
2018-06-29T13:28:19.666Z,9.57
2018-06-29T13:30:48.293Z,8.90
2018-06-29T13:33:16.959Z,9.07
2018-06-29T13:35:45.746Z,9.20
2018-06-29T13:38:14.459Z,8.97
2018-06-29T13:40:43.183Z,9.63
2018-06-29T13:43:11.842Z,12.07
2018-06-29T13:45:40.568Z,9.60
2018-06-29T13:48:09.250Z,8.67
2018-06-29T13:50:37.581Z,8.87
2018-06-29T13:53:06.295Z,9.40
2018-06-29T13:55:35.001Z,9.00
2018-06-29T13:58:03.922Z,9.20
2018-06-29T14:00:32.614Z,9.27
2018-06-29T14:03:01.308Z,8.80
2018-06-29T14:05:30.020Z,8.90
2018-06-29T14:07:58.692Z,9.53
2018-06-29T14:16:25.647Z,8.50
2018-06-29T14:18:54.325Z,9.03
2018-06-29T14:21:23.048Z,9.40
2018-06-29T14:23:51.862Z,9.40
2018-06-29T14:26:20.630Z,10.10
2018-06-29T14:28:49.375Z,19.67
2018-06-29T14:31:23.705Z,10.77
2018-06-29T14:33:52.494Z,10.33
2018-06-29T14:36:21.171Z,9.90
2018-06-29T14:38:49.918Z,9.87
2018-06-29T14:41:18.505Z,9.97
2018-06-29T14:43:47.297Z,10.43
2018-06-29T14:46:16.030Z,9.73
2018-06-29T14:48:44.754Z,10.53
2018-06-29T14:51:13.585Z,11.07
2018-06-29T14:53:42.282Z,10.57
2018-06-29T14:56:11.030Z,10.60
2018-06-29T14:58:39.399Z,10.30
2018-06-29T15:01:08.130Z,11.20
2018-06-29T15:03:36.909Z,11.23
2018-06-29T15:06:05.616Z,10.80
2018-06-29T15:08:34.321Z,11.40
2018-06-29T15:11:03.021Z,10.53
2018-06-29T15:13:32.085Z,10.23
2018-06-29T15:16:00.858Z,10.30
2018-06-29T15:18:29.537Z,10.63
2018-06-29T15:20:58.278Z,10.00
2018-06-29T15:23:27.051Z,10.00
2018-06-29T15:25:55.950Z,9.90
2018-06-29T15:28:24.872Z,10.57
2018-06-29T15:30:53.623Z,9.73
2018-06-29T15:33:22.426Z,9.23
2018-06-29T15:35:51.157Z,10.00
2018-06-29T15:38:19.873Z,9.33
2018-06-29T15:40:48.711Z,9.10
2018-06-29T15:43:17.602Z,10.20
2018-06-29T15:45:46.606Z,9.00
2018-06-29T15:48:15.456Z,9.00
2018-06-29T15:50:44.157Z,8.90
2018-06-29T15:53:12.836Z,8.03
2018-06-29T15:55:41.638Z,8.67
2018-06-29T15:58:10.694Z,9.30
2018-06-29T16:00:40.034Z,8.43
2018-06-29T16:03:09.335Z,9.17
2018-06-29T16:05:38.079Z,9.87
2018-06-29T16:08:08.482Z,9.23
2018-06-29T16:10:37.192Z,10.33
2018-06-29T16:13:09.390Z,9.30
2018-06-29T16:15:43.426Z,9.77
2018-06-29T16:18:12.089Z,10.13
2018-06-29T16:20:40.879Z,9.97
2018-06-29T16:23:09.606Z,10.27
2018-06-29T16:25:38.302Z,9.40
2018-06-29T16:28:07.014Z,9.33
2018-06-29T16:30:35.685Z,9.73
2018-06-29T16:33:04.356Z,9.47
2018-06-29T16:35:33.113Z,9.90
2018-06-29T16:38:01.836Z,9.60
2018-06-29T16:40:30.911Z,12.73
2018-06-29T16:43:00.197Z,9.87
2018-06-29T16:45:28.942Z,9.47
2018-06-29T16:50:58.662Z,9.00
2018-06-29T16:53:27.705Z,8.90
2018-06-29T16:55:56.578Z,8.10
2018-06-29T16:58:26.579Z,9.13
2018-06-29T17:00:55.381Z,8.60
2018-06-29T17:03:25.075Z,9.63
2018-06-29T17:05:53.801Z,9.53
2018-06-29T17:08:23.651Z,8.37
2018-06-29T17:10:52.917Z,8.70
2018-06-29T17:13:21.686Z,11.57
2018-06-29T17:15:56.582Z,9.00
2018-06-29T17:18:30.955Z,9.10
2018-06-29T17:20:59.778Z,9.30
2018-06-29T17:23:28.446Z,10.00
2018-06-29T17:25:57.130Z,9.20
2018-06-29T17:28:25.893Z,9.23
2018-06-29T17:30:56.723Z,8.83
2018-06-29T17:33:32.053Z,9.57
2018-06-29T17:35:54.158Z,10.07
2018-06-29T17:38:22.843Z,10.73
2018-06-29T17:40:51.510Z,9.40
2018-06-29T17:43:20.579Z,9.60
2018-06-29T17:45:49.217Z,9.37
2018-06-29T17:48:17.911Z,9.57
2018-06-29T17:50:46.702Z,13.50
2018-06-29T17:53:15.467Z,9.50
2018-06-29T17:55:44.170Z,13.20
2018-06-29T17:58:32.639Z,9.70
2018-06-29T18:01:17.782Z,9.50
2018-06-29T18:03:46.459Z,10.33
2018-06-29T18:06:15.330Z,10.33
2018-06-29T18:08:44.031Z,10.47
2018-06-29T18:11:12.739Z,11.30
2018-06-29T18:13:41.462Z,9.83
2018-06-29T18:16:10.162Z,12.60
2018-06-29T18:18:38.942Z,10.20
2018-06-29T18:21:07.323Z,11.10
2018-06-29T18:23:35.794Z,15.80
2018-06-29T18:26:04.642Z,12.00
2018-06-29T18:28:33.535Z,12.17
2018-06-29T18:31:02.489Z,13.83
2018-06-29T18:33:31.482Z,11.40
2018-06-29T18:41:41.678Z,10.63
2018-06-29T18:44:10.691Z,12.10
2018-06-29T18:46:39.735Z,13.60
2018-06-29T18:49:09.245Z,12.43
2018-06-29T18:51:38.806Z,14.57
2018-06-29T18:54:08.275Z,11.30
2018-06-29T18:56:37.306Z,10.90
2018-06-29T18:59:09.665Z,16.63
2018-06-29T19:01:38.643Z,10.70
2018-06-29T19:04:07.638Z,10.60
2018-06-29T19:06:36.712Z,10.40
2018-06-29T19:09:08.210Z,11.17
2018-06-29T19:11:37.652Z,11.13
2018-06-29T19:14:06.871Z,19.23
2018-06-29T19:16:36.262Z,13.43
2018-06-29T19:19:05.431Z,17.43
2018-06-29T19:21:46.457Z,52.33
2018-06-29T19:24:15.487Z,16.53
2018-06-29T19:26:44.580Z,11.70
2018-06-29T19:29:13.588Z,11.17
2018-06-29T19:31:42.630Z,12.23
2018-06-29T19:34:17.542Z,12.90
2018-06-29T19:36:46.600Z,12.53
2018-06-29T19:39:15.757Z,11.70
2018-06-29T19:41:48.547Z,11.60
2018-06-29T19:44:17.762Z,16.97
2018-06-29T19:46:46.752Z,12.20
2018-06-29T19:49:16.036Z,11.83
2018-06-29T19:51:45.170Z,11.53
2018-06-29T19:54:14.269Z,11.67
2018-06-29T19:56:44.156Z,11.57
2018-06-29T19:59:12.908Z,11.37
2018-06-29T20:01:41.806Z,11.90
2018-06-29T20:04:10.122Z,11.97
2018-06-29T20:06:38.887Z,11.10
2018-06-29T20:09:10.352Z,11.47
2018-06-29T20:11:39.155Z,12.50
2018-06-29T20:14:08.557Z,12.77
2018-06-29T20:17:00.812Z,12.47
2018-06-29T20:19:47.624Z,13.33
2018-06-29T20:25:10.358Z,18.30
2018-06-29T20:27:40.866Z,14.70
2018-06-29T20:30:11.888Z,15.73
2018-06-29T20:32:42.054Z,14.93
2018-06-29T20:35:19.134Z,13.77
2018-06-29T20:37:53.007Z,12.53
2018-06-29T20:40:22.430Z,12.90
2018-06-29T20:42:52.281Z,12.73
2018-06-29T20:45:21.028Z,13.80
2018-06-29T20:47:51.919Z,13.30
2018-06-29T20:50:20.635Z,13.20
2018-06-29T20:52:49.418Z,13.80
2018-06-29T20:55:18.327Z,13.33
2018-06-29T20:57:48.110Z,13.97
2018-06-29T21:00:17.174Z,13.93
2018-06-29T21:02:45.962Z,14.73
2018-06-29T21:05:14.700Z,14.33
2018-06-29T21:07:43.441Z,14.67
2018-06-29T21:10:12.298Z,15.00
2018-06-29T21:12:41.520Z,16.20
2018-06-29T21:15:10.909Z,15.40
2018-06-29T21:17:40.826Z,15.60
2018-06-29T21:20:09.626Z,15.30
2018-06-29T21:22:38.362Z,15.20
2018-06-29T21:25:07.274Z,16.37
2018-06-29T21:27:36.043Z,14.60
2018-06-29T21:30:05.505Z,15.60
2018-06-29T21:32:37.733Z,15.13
2018-06-29T21:35:06.739Z,15.57
2018-06-29T21:37:35.474Z,16.67
2018-06-29T21:40:04.264Z,16.87
2018-06-29T21:42:33.027Z,16.13
2018-06-29T21:45:01.788Z,17.77
2018-06-29T21:47:30.555Z,15.83
2018-06-29T21:49:59.470Z,16.63
2018-06-29T21:55:21.243Z,16.90
2018-06-29T21:57:50.024Z,16.83
2018-06-29T22:00:18.874Z,16.93
2018-06-29T22:02:47.599Z,16.40
2018-06-29T22:05:17.521Z,17.70
2018-06-29T22:07:46.316Z,18.00
2018-06-29T22:10:15.031Z,17.90
2018-06-29T22:12:43.722Z,17.67
2018-06-29T22:15:17.787Z,18.43
2018-06-29T22:17:46.479Z,18.53
2018-06-29T22:20:15.193Z,17.73
2018-06-29T22:22:43.866Z,18.07
2018-06-29T22:25:12.558Z,18.90
2018-06-29T22:27:41.248Z,18.50
2018-06-29T22:30:09.946Z,17.77
2018-06-29T22:32:38.709Z,18.13
2018-06-29T22:35:08.478Z,16.27
2018-06-29T22:37:37.560Z,17.53
2018-06-29T22:40:06.293Z,17.60
2018-06-29T22:42:34.990Z,17.70
2018-06-29T22:45:03.923Z,18.53
2018-06-29T22:47:32.621Z,18.27
2018-06-29T22:50:01.351Z,19.00
2018-06-29T22:52:30.079Z,18.53
2018-06-29T22:54:58.858Z,19.30
2018-06-29T22:57:27.591Z,18.00
2018-06-29T22:59:56.298Z,18.83
2018-06-29T23:02:25.054Z,19.40
2018-06-29T23:04:53.747Z,17.37
2018-06-29T23:07:22.467Z,17.83
2018-06-29T23:09:51.181Z,19.10
2018-06-29T23:12:19.890Z,18.27
2018-06-29T23:14:48.677Z,19.57
2018-06-29T23:17:17.398Z,18.13
2018-06-29T23:19:46.105Z,18.83
2018-06-29T23:22:14.816Z,19.10
2018-06-29T23:24:43.518Z,18.83
2018-06-29T23:27:12.309Z,18.93
2018-06-29T23:29:40.992Z,18.10
2018-06-29T23:32:09.702Z,18.57
2018-06-29T23:34:38.394Z,19.20
2018-06-29T23:37:07.156Z,19.27
2018-06-29T23:39:35.842Z,18.67
2018-06-29T23:42:04.588Z,19.70
2018-06-29T23:44:33.278Z,20.30
2018-06-29T23:47:02.023Z,18.23
2018-06-29T23:49:30.810Z,20.20
2018-06-29T23:51:59.535Z,21.57
2018-06-29T23:54:28.230Z,20.30
2018-06-29T23:56:56.939Z,21.13
2018-06-29T23:59:25.667Z,20.10
